Flight Track Log - Related Links

Times and Time Zones

All times are in EDT time to prevent confusion due to time zone crossing. See the SKW5419 flight status page for this flight to view local times or setup timezone preferences in your user account.

Time Position Orientation Groundspeed Altitude Reporting Facility
EDT Latitude Longitude Course Direction KTS MPH feet Rate Location/Type
Sun 02:57:32 PM 42.0218 -87.8746 31° Northeast  Level Estimated
Sun 02:58:32 PM 42.0970 -87.8144 31° Northeast  Level Estimated
Sun 02:59:32 PM 42.1722 -87.7540 31° Northeast  Level Estimated
Sun 03:00:32 PM 42.2474 -87.6935 31° Northeast  Level Estimated
Sun 03:01:32 PM 42.3226 -87.6328 31° Northeast  Level Estimated
Sun 03:02:32 PM 42.3977 -87.5720 31° Northeast  Level Estimated
Sun 03:03:32 PM 42.4728 -87.5110 31° Northeast  Level Estimated
Sun 03:04:32 PM 42.5478 -87.4499 31° Northeast  Level Estimated
Sun 03:05:32 PM 42.6228 -87.3887 31° Northeast  Level Estimated
Sun 03:06:32 PM 42.6978 -87.3273 31° Northeast  Level Estimated
Sun 03:07:32 PM 42.7728 -87.2657 31° Northeast  Level Estimated
Sun 03:08:32 PM 42.8477 -87.2040 31° Northeast  Level Estimated
Sun 03:09:32 PM 42.9226 -87.1422 31° Northeast  Level Estimated
Sun 03:10:32 PM 42.9974 -87.0802 31° Northeast  Level Estimated
Sun 03:11:32 PM 43.0722 -87.0180 31° Northeast  Level Estimated
Sun 03:12:32 PM 43.1470 -86.9557 31° Northeast  Level Estimated
Sun 03:13:32 PM 43.2217 -86.8933 31° Northeast  Level Estimated
Sun 03:14:32 PM 43.2965 -86.8307 31° Northeast  Level Estimated
Sun 03:15:32 PM 43.3711 -86.7679 31° Northeast  Level Estimated
Sun 03:16:32 PM 43.4458 -86.7050 32° Northeast  Level Estimated
Sun 03:17:32 PM 43.5204 -86.6419 32° Northeast  Level Estimated
Sun 03:18:32 PM 43.5950 -86.5787 32° Northeast  Level Estimated
Sun 03:19:32 PM 43.6695 -86.5153 32° Northeast  Level Estimated
Sun 03:20:32 PM 43.7440 -86.4518 32° Northeast  Level Estimated
Sun 03:21:32 PM 43.8185 -86.3881 32° Northeast  Level Estimated
Sun 03:22:32 PM 43.8929 -86.3242 32° Northeast  Level Estimated
Sun 03:23:32 PM 43.9673 -86.2602 32° Northeast  Level Estimated
Sun 03:24:32 PM 44.0417 -86.1960 32° Northeast  Level Estimated
Sun 03:25:32 PM 44.1160 -86.1317 32° Northeast  Level Estimated
Sun 03:26:32 PM 44.1903 -86.0672 32° Northeast  Level Estimated
Sun 03:27:32 PM 44.2646 -86.0025 32° Northeast  Level Estimated
Sun 03:28:32 PM 44.3388 -85.9377 32° Northeast  Level Estimated
Sun 03:29:32 PM 44.4130 -85.8727 32° Northeast  Level Estimated
Sun 03:30:32 PM 44.4871 -85.8075 32° Northeast  Level Estimated
Sun 03:31:32 PM 44.5612 -85.7422 32° Northeast  Level Estimated
Sun 03:32:32 PM 44.6353 -85.6767 32° Northeast  Level Estimated
Sun 03:33:32 PM 44.7093 -85.6111 32° Northeast  Level Estimated

Login

Don't have an account? Register now (free) for customized features, flight alerts, and more!